sensor_id;sensor_type;location;lat;lon;timestamp;pressure;altitude;pressure_sealevel;temperature;humidity
29569;BME280;16501;51.462;14.346;2023-01-29T00:01:43;101372.03;;;-2.09;99.81
29569;BME280;16501;51.462;14.346;2023-01-29T00:04:08;101373.34;;;-2.02;100.00
29569;BME280;16501;51.462;14.346;2023-01-29T00:06:34;101372.91;;;-2.04;99.84
29569;BME280;16501;51.462;14.346;2023-01-29T00:08:59;101352.19;;;-2.18;100.00
29569;BME280;16501;51.462;14.346;2023-01-29T00:11:25;101372.47;;;-2.06;100.00
29569;BME280;16501;51.462;14.346;2023-01-29T00:13:52;101333.81;;;-2.33;100.00
29569;BME280;16501;51.462;14.346;2023-01-29T00:16:19;101347.50;;;-2.17;100.00
29569;BME280;16501;51.462;14.346;2023-01-29T00:18:45;101376.44;;;-2.04;100.00
29569;BME280;16501;51.462;14.346;2023-01-29T00:21:11;101347.44;;;-2.21;99.75
29569;BME280;16501;51.462;14.346;2023-01-29T00:23:40;101342.72;;;-2.20;100.00
29569;BME280;16501;51.462;14.346;2023-01-29T00:26:05;101355.91;;;-2.10;100.00
29569;BME280;16501;51.462;14.346;2023-01-29T00:28:31;101332.81;;;-2.25;99.81
29569;BME280;16501;51.462;14.346;2023-01-29T00:30:58;101354.72;;;-2.09;100.00
29569;BME280;16501;51.462;14.346;2023-01-29T00:33:24;101348.44;;;-2.10;100.00
29569;BME280;16501;51.462;14.346;2023-01-29T00:35:51;101344.56;;;-2.09;100.00
29569;BME280;16501;51.462;14.346;2023-01-29T00:38:17;101322.97;;;-2.26;100.00
29569;BME280;16501;51.462;14.346;2023-01-29T00:40:43;101303.75;;;-2.26;100.00
29569;BME280;16501;51.462;14.346;2023-01-29T00:43:27;101316.38;;;-2.21;99.96
29569;BME280;16501;51.462;14.346;2023-01-29T00:46:11;101315.03;;;-2.31;100.00
29569;BME280;16501;51.462;14.346;2023-01-29T00:48:37;101325.88;;;-2.19;100.00
29569;BME280;16501;51.462;14.346;2023-01-29T00:51:03;101329.06;;;-2.17;100.00
29569;BME280;16501;51.462;14.346;2023-01-29T00:53:30;101332.44;;;-2.23;100.00
29569;BME280;16501;51.462;14.346;2023-01-29T00:55:55;101348.44;;;-2.10;100.00
29569;BME280;16501;51.462;14.346;2023-01-29T00:58:20;101333.84;;;-2.14;100.00
29569;BME280;16501;51.462;14.346;2023-01-29T01:00:48;101342.25;;;-2.06;100.00
29569;BME280;16501;51.462;14.346;2023-01-29T01:03:14;101347.66;;;-2.10;100.00
29569;BME280;16501;51.462;14.346;2023-01-29T01:05:39;101343.66;;;-2.13;100.00
29569;BME280;16501;51.462;14.346;2023-01-29T01:08:06;101350.41;;;-2.10;100.00
29569;BME280;16501;51.462;14.346;2023-01-29T01:10:57;101327.84;;;-2.19;100.00
29569;BME280;16501;51.462;14.346;2023-01-29T01:13:23;101340.13;;;-2.13;100.00
29569;BME280;16501;51.462;14.346;2023-01-29T01:15:48;101324.41;;;-2.32;100.00
29569;BME280;16501;51.462;14.346;2023-01-29T01:18:13;101351.25;;;-2.25;100.00
29569;BME280;16501;51.462;14.346;2023-01-29T01:20:40;101341.41;;;-2.27;100.00
29569;BME280;16501;51.462;14.346;2023-01-29T01:23:05;101307.59;;;-2.47;100.00
29569;BME280;16501;51.462;14.346;2023-01-29T01:25:31;101324.69;;;-2.37;100.00
29569;BME280;16501;51.462;14.346;2023-01-29T01:27:58;101315.66;;;-2.38;100.00
29569;BME280;16501;51.462;14.346;2023-01-29T01:30:25;101301.19;;;-2.54;100.00
29569;BME280;16501;51.462;14.346;2023-01-29T01:32:51;101309.22;;;-2.45;100.00
29569;BME280;16501;51.462;14.346;2023-01-29T01:35:17;101315.56;;;-2.41;100.00
29569;BME280;16501;51.462;14.346;2023-01-29T01:37:42;101307.19;;;-2.49;100.00
29569;BME280;16501;51.462;14.346;2023-01-29T01:40:13;101294.78;;;-2.58;100.00
29569;BME280;16501;51.462;14.346;2023-01-29T01:42:51;101308.59;;;-2.55;100.00
29569;BME280;16501;51.462;14.346;2023-01-29T01:45:26;101300.91;;;-2.65;100.00
29569;BME280;16501;51.462;14.346;2023-01-29T01:48:00;101314.59;;;-2.49;100.00
29569;BME280;16501;51.462;14.346;2023-01-29T01:53:06;101293.47;;;-2.64;100.00
29569;BME280;16501;51.462;14.346;2023-01-29T01:55:32;101284.06;;;-2.63;100.00
29569;BME280;16501;51.462;14.346;2023-01-29T01:58:05;101270.81;;;-2.77;100.00
29569;BME280;16501;51.462;14.346;2023-01-29T02:00:33;101278.69;;;-2.76;100.00
29569;BME280;16501;51.462;14.346;2023-01-29T02:03:00;101278.78;;;-2.72;100.00
29569;BME280;16501;51.462;14.346;2023-01-29T02:05:45;101286.66;;;-2.71;99.66
29569;BME280;16501;51.462;14.346;2023-01-29T02:08:51;101286.59;;;-2.74;100.00
29569;BME280;16501;51.462;14.346;2023-01-29T02:11:37;101266.59;;;-2.91;100.00
29569;BME280;16501;51.462;14.346;2023-01-29T02:14:03;101279.31;;;-2.82;99.96
29569;BME280;16501;51.462;14.346;2023-01-29T02:16:33;101281.38;;;-2.79;100.00
29569;BME280;16501;51.462;14.346;2023-01-29T02:19:00;101288.19;;;-2.73;100.00
29569;BME280;16501;51.462;14.346;2023-01-29T02:27:15;101256.69;;;-2.95;100.00
29569;BME280;16501;51.462;14.346;2023-01-29T02:33:32;101295.00;;;-2.83;100.00
29569;BME280;16501;51.462;14.346;2023-01-29T02:36:17;101290.31;;;-2.82;100.00
29569;BME280;16501;51.462;14.346;2023-01-29T02:38:57;101286.88;;;-2.95;100.00
29569;BME280;16501;51.462;14.346;2023-01-29T02:41:28;101295.00;;;-2.83;100.00
29569;BME280;16501;51.462;14.346;2023-01-29T02:44:09;101292.63;;;-2.85;99.96
29569;BME280;16501;51.462;14.346;2023-01-29T02:46:45;101286.78;;;-2.83;100.00
29569;BME280;16501;51.462;14.346;2023-01-29T02:54:40;101291.56;;;-2.96;99.06
29569;BME280;16501;51.462;14.346;2023-01-29T02:57:29;101291.94;;;-2.97;99.00
29569;BME280;16501;51.462;14.346;2023-01-29T03:00:10;101270.84;;;-3.09;99.25
29569;BME280;16501;51.462;14.346;2023-01-29T03:02:48;101287.31;;;-2.93;99.63
29569;BME280;16501;51.462;14.346;2023-01-29T03:05:21;101279.25;;;-3.02;98.60
29569;BME280;16501;51.462;14.346;2023-01-29T03:07:52;101284.47;;;-2.97;99.38
29569;BME280;16501;51.462;14.346;2023-01-29T03:10:25;101283.06;;;-3.07;98.90
29569;BME280;16501;51.462;14.346;2023-01-29T03:12:56;101263.41;;;-3.25;98.58
29569;BME280;16501;51.462;14.346;2023-01-29T03:15:48;101279.09;;;-3.09;99.74
29569;BME280;16501;51.462;14.346;2023-01-29T03:18:22;101260.50;;;-3.16;98.76
29569;BME280;16501;51.462;14.346;2023-01-29T03:20:56;101262.91;;;-3.14;99.26
29569;BME280;16501;51.462;14.346;2023-01-29T03:23:27;101286.34;;;-3.01;98.87
29569;BME280;16501;51.462;14.346;2023-01-29T03:26:14;101274.13;;;-3.04;98.35
29569;BME280;16501;51.462;14.346;2023-01-29T03:29:00;101274.91;;;-3.03;97.58
29569;BME280;16501;51.462;14.346;2023-01-29T03:31:47;101272.16;;;-3.03;97.44
29569;BME280;16501;51.462;14.346;2023-01-29T03:34:39;101262.97;;;-3.11;97.42
29569;BME280;16501;51.462;14.346;2023-01-29T03:37:12;101268.63;;;-3.04;97.53
29569;BME280;16501;51.462;14.346;2023-01-29T03:39:39;101256.25;;;-3.13;97.23
29569;BME280;16501;51.462;14.346;2023-01-29T03:47:44;101278.38;;;-3.06;97.04
29569;BME280;16501;51.462;14.346;2023-01-29T03:50:34;101265.38;;;-3.09;97.22
29569;BME280;16501;51.462;14.346;2023-01-29T03:55:57;101265.44;;;-3.06;97.07
29569;BME280;16501;51.462;14.346;2023-01-29T03:58:42;101266.25;;;-3.05;96.15
29569;BME280;16501;51.462;14.346;2023-01-29T04:01:25;101247.94;;;-3.17;96.91
29569;BME280;16501;51.462;14.346;2023-01-29T04:06:29;101243.84;;;-3.07;97.04
29569;BME280;16501;51.462;14.346;2023-01-29T04:09:02;101256.25;;;-2.97;97.09
29569;BME280;16501;51.462;14.346;2023-01-29T04:11:28;101232.44;;;-3.09;96.88
29569;BME280;16501;51.462;14.346;2023-01-29T04:13:56;101225.34;;;-3.10;98.06
29569;BME280;16501;51.462;14.346;2023-01-29T04:16:27;101234.84;;;-3.08;97.44
29569;BME280;16501;51.462;14.346;2023-01-29T04:18:53;101226.25;;;-3.06;97.32
29569;BME280;16501;51.462;14.346;2023-01-29T04:21:19;101240.84;;;-3.02;97.59
29569;BME280;16501;51.462;14.346;2023-01-29T04:23:45;101233.03;;;-3.00;97.26
29569;BME280;16501;51.462;14.346;2023-01-29T04:32:14;101228.00;;;-2.98;97.26
29569;BME280;16501;51.462;14.346;2023-01-29T04:34:55;101224.03;;;-3.00;97.20
29569;BME280;16501;51.462;14.346;2023-01-29T04:49:45;101203.03;;;-2.93;97.23
29569;BME280;16501;51.462;14.346;2023-01-29T04:55:02;101209.59;;;-2.97;96.07
29569;BME280;16501;51.462;14.346;2023-01-29T05:00:23;101191.97;;;-2.96;96.34
29569;BME280;16501;51.462;14.346;2023-01-29T05:02:52;101179.34;;;-3.01;96.15
29569;BME280;16501;51.462;14.346;2023-01-29T05:05:19;101161.13;;;-3.09;96.54
29569;BME280;16501;51.462;14.346;2023-01-29T05:07:46;101191.97;;;-2.96;96.10
29569;BME280;16501;51.462;14.346;2023-01-29T05:10:14;101117.69;;;-3.23;96.01
29569;BME280;16501;51.462;14.346;2023-01-29T05:12:43;101170.38;;;-2.98;95.94
29569;BME280;16501;51.462;14.346;2023-01-29T05:15:14;101162.88;;;-3.01;96.23
29569;BME280;16501;51.462;14.346;2023-01-29T05:17:41;101153.31;;;-3.07;96.06
29569;BME280;16501;51.462;14.346;2023-01-29T05:20:07;101161.78;;;-2.96;95.68
29569;BME280;16501;51.462;14.346;2023-01-29T05:22:36;101153.91;;;-2.98;95.93
29569;BME280;16501;51.462;14.346;2023-01-29T05:25:12;101157.47;;;-2.97;96.32
29569;BME280;16501;51.462;14.346;2023-01-29T05:28:13;101163.75;;;-2.97;95.19
29569;BME280;16501;51.462;14.346;2023-01-29T05:30:46;101167.72;;;-2.94;96.14
29569;BME280;16501;51.462;14.346;2023-01-29T05:35:41;101124.84;;;-3.18;96.04
29569;BME280;16501;51.462;14.346;2023-01-29T05:38:06;101169.81;;;-2.88;95.51
29569;BME280;16501;51.462;14.346;2023-01-29T05:40:33;101143.94;;;-3.06;96.12
29569;BME280;16501;51.462;14.346;2023-01-29T05:42:58;101168.50;;;-2.94;95.82
29569;BME280;16501;51.462;14.346;2023-01-29T05:45:24;101161.34;;;-2.98;95.88
29569;BME280;16501;51.462;14.346;2023-01-29T05:47:50;101165.91;;;-2.87;95.34
29569;BME280;16501;51.462;14.346;2023-01-29T05:50:19;101136.25;;;-3.16;95.63
29569;BME280;16501;51.462;14.346;2023-01-29T05:52:45;101144.44;;;-3.00;94.72
29569;BME280;16501;51.462;14.346;2023-01-29T05:55:10;101137.63;;;-3.07;95.06
29569;BME280;16501;51.462;14.346;2023-01-29T05:57:36;101164.97;;;-2.94;94.96
29569;BME280;16501;51.462;14.346;2023-01-29T06:00:03;101162.78;;;-3.05;95.41
29569;BME280;16501;51.462;14.346;2023-01-29T06:02:29;101162.59;;;-2.96;94.29
29569;BME280;16501;51.462;14.346;2023-01-29T06:04:55;101161.44;;;-2.95;94.70
29569;BME280;16501;51.462;14.346;2023-01-29T06:07:21;101165.34;;;-2.96;94.35
29569;BME280;16501;51.462;14.346;2023-01-29T06:09:46;101174.72;;;-2.97;94.09
29569;BME280;16501;51.462;14.346;2023-01-29T06:12:11;101189.75;;;-2.91;94.89
29569;BME280;16501;51.462;14.346;2023-01-29T06:14:37;101195.69;;;-2.89;94.21
29569;BME280;16501;51.462;14.346;2023-01-29T06:17:02;101184.91;;;-2.97;94.37
29569;BME280;16501;51.462;14.346;2023-01-29T06:19:27;101203.09;;;-2.89;93.74
29569;BME280;16501;51.462;14.346;2023-01-29T06:21:52;101205.75;;;-2.93;93.66
29569;BME280;16501;51.462;14.346;2023-01-29T06:24:18;101197.81;;;-2.98;93.56
29569;BME280;16501;51.462;14.346;2023-01-29T06:26:44;101196.50;;;-3.04;94.21
29569;BME280;16501;51.462;14.346;2023-01-29T06:29:11;101205.88;;;-3.05;94.46
29569;BME280;16501;51.462;14.346;2023-01-29T06:31:36;101188.47;;;-3.13;94.90
29569;BME280;16501;51.462;14.346;2023-01-29T06:34:02;101194.28;;;-2.98;95.30
29569;BME280;16501;51.462;14.346;2023-01-29T06:36:28;101220.38;;;-2.89;94.42
29569;BME280;16501;51.462;14.346;2023-01-29T06:38:55;101191.44;;;-3.02;95.01
29569;BME280;16501;51.462;14.346;2023-01-29T06:41:20;101187.09;;;-3.03;94.16
29569;BME280;16501;51.462;14.346;2023-01-29T06:43:50;101231.38;;;-2.89;95.10
29569;BME280;16501;51.462;14.346;2023-01-29T06:46:16;101226.56;;;-2.92;95.01
29569;BME280;16501;51.462;14.346;2023-01-29T06:48:41;101226.56;;;-2.92;95.04
29569;BME280;16501;51.462;14.346;2023-01-29T06:51:09;101212.63;;;-3.03;95.62
29569;BME280;16501;51.462;14.346;2023-01-29T06:53:36;101215.78;;;-3.00;95.30
29569;BME280;16501;51.462;14.346;2023-01-29T06:56:03;101243.91;;;-2.88;95.84
29569;BME280;16501;51.462;14.346;2023-01-29T06:58:28;101221.72;;;-2.98;95.43
29569;BME280;16501;51.462;14.346;2023-01-29T07:01:05;101254.63;;;-2.82;95.40
29569;BME280;16501;51.462;14.346;2023-01-29T07:03:30;101246.13;;;-2.93;95.82
29569;BME280;16501;51.462;14.346;2023-01-29T07:05:57;101246.84;;;-2.96;94.96
29569;BME280;16501;51.462;14.346;2023-01-29T07:08:22;101269.50;;;-2.83;95.02
29569;BME280;16501;51.462;14.346;2023-01-29T07:10:48;101239.06;;;-2.94;94.85
29569;BME280;16501;51.462;14.346;2023-01-29T07:13:15;101259.84;;;-2.77;95.04
29569;BME280;16501;51.462;14.346;2023-01-29T07:15:42;101212.81;;;-3.11;94.21
29569;BME280;16501;51.462;14.346;2023-01-29T07:18:08;101234.03;;;-2.92;94.89
29569;BME280;16501;51.462;14.346;2023-01-29T07:20:38;101247.72;;;-2.76;94.77
29569;BME280;16501;51.462;14.346;2023-01-29T07:23:03;101228.88;;;-2.94;95.09
29569;BME280;16501;51.462;14.346;2023-01-29T07:25:29;101235.41;;;-2.82;95.18
29569;BME280;16501;51.462;14.346;2023-01-29T07:27:59;101241.13;;;-2.72;95.05
29569;BME280;16501;51.462;14.346;2023-01-29T07:30:24;101234.53;;;-2.87;95.06
29569;BME280;16501;51.462;14.346;2023-01-29T07:32:50;101239.63;;;-2.69;95.21
29569;BME280;16501;51.462;14.346;2023-01-29T07:35:15;101214.69;;;-2.80;95.45
29569;BME280;16501;51.462;14.346;2023-01-29T07:37:40;101225.75;;;-2.76;95.56
29569;BME280;16501;51.462;14.346;2023-01-29T07:40:06;101226.97;;;-2.74;95.58
29569;BME280;16501;51.462;14.346;2023-01-29T07:42:36;101220.97;;;-2.79;95.44
29569;BME280;16501;51.462;14.346;2023-01-29T07:45:01;101228.81;;;-2.62;95.91
29569;BME280;16501;51.462;14.346;2023-01-29T07:47:28;101223.16;;;-2.69;95.04
29569;BME280;16501;51.462;14.346;2023-01-29T07:49:53;101223.88;;;-2.72;95.39
29569;BME280;16501;51.462;14.346;2023-01-29T07:52:18;101202.53;;;-2.79;95.28
29569;BME280;16501;51.462;14.346;2023-01-29T07:54:45;101207.56;;;-2.65;95.69
29569;BME280;16501;51.462;14.346;2023-01-29T07:57:10;101195.06;;;-2.62;95.24
29569;BME280;16501;51.462;14.346;2023-01-29T07:59:36;101194.28;;;-2.63;95.56
29569;BME280;16501;51.462;14.346;2023-01-29T08:02:01;101196.28;;;-2.60;96.79
29569;BME280;16501;51.462;14.346;2023-01-29T08:04:27;101190.38;;;-2.62;95.24
29569;BME280;16501;51.462;14.346;2023-01-29T08:06:53;101159.16;;;-2.73;96.52
29569;BME280;16501;51.462;14.346;2023-01-29T08:09:18;101151.22;;;-2.78;96.26
29569;BME280;16501;51.462;14.346;2023-01-29T08:11:43;101187.06;;;-2.52;96.01
29569;BME280;16501;51.462;14.346;2023-01-29T08:14:08;101162.06;;;-2.66;95.75
29569;BME280;16501;51.462;14.346;2023-01-29T08:16:34;101188.59;;;-2.54;96.35
29569;BME280;16501;51.462;14.346;2023-01-29T08:19:03;101180.41;;;-2.51;95.80
29569;BME280;16501;51.462;14.346;2023-01-29T08:21:28;101176.16;;;-2.48;95.71
29569;BME280;16501;51.462;14.346;2023-01-29T08:23:53;101177.38;;;-2.45;96.02
29569;BME280;16501;51.462;14.346;2023-01-29T08:26:19;101170.66;;;-2.48;95.56
29569;BME280;16501;51.462;14.346;2023-01-29T08:28:44;101201.97;;;-2.33;96.10
29569;BME280;16501;51.462;14.346;2023-01-29T08:31:14;101179.31;;;-2.46;95.68
29569;BME280;16501;51.462;14.346;2023-01-29T08:33:42;101198.94;;;-2.28;95.65
29569;BME280;16501;51.462;14.346;2023-01-29T08:36:07;101154.38;;;-2.57;95.75
29569;BME280;16501;51.462;14.346;2023-01-29T08:38:33;101196.97;;;-2.28;95.66
29569;BME280;16501;51.462;14.346;2023-01-29T08:40:58;101192.31;;;-2.23;95.40
29569;BME280;16501;51.462;14.346;2023-01-29T08:43:24;101189.66;;;-2.20;96.09
29569;BME280;16501;51.462;14.346;2023-01-29T08:45:50;101158.88;;;-2.29;96.06
29569;BME280;16501;51.462;14.346;2023-01-29T08:48:16;101169.03;;;-2.10;95.70
29569;BME280;16501;51.462;14.346;2023-01-29T08:50:42;101160.19;;;-2.23;95.11
29569;BME280;16501;51.462;14.346;2023-01-29T08:53:08;101172.50;;;-2.13;95.32
29569;BME280;16501;51.462;14.346;2023-01-29T08:55:35;101160.19;;;-2.23;96.24
29569;BME280;16501;51.462;14.346;2023-01-29T08:58:02;101168.53;;;-2.16;96.36
29569;BME280;16501;51.462;14.346;2023-01-29T09:00:28;101166.47;;;-2.22;96.21
29569;BME280;16501;51.462;14.346;2023-01-29T09:02:53;101180.69;;;-2.17;96.85
29569;BME280;16501;51.462;14.346;2023-01-29T09:05:20;101163.22;;;-2.28;97.26
29569;BME280;16501;51.462;14.346;2023-01-29T09:07:45;101157.19;;;-2.34;97.05
29569;BME280;16501;51.462;14.346;2023-01-29T09:10:10;101158.16;;;-2.26;97.54
29569;BME280;16501;51.462;14.346;2023-01-29T09:12:36;101169.75;;;-2.13;96.84
29569;BME280;16501;51.462;14.346;2023-01-29T09:15:01;101169.88;;;-2.06;97.86
29569;BME280;16501;51.462;14.346;2023-01-29T09:17:28;101145.38;;;-2.15;97.60
29569;BME280;16501;51.462;14.346;2023-01-29T09:19:53;101135.56;;;-2.16;97.74
29569;BME280;16501;51.462;14.346;2023-01-29T09:22:20;101148.25;;;-2.08;97.34
29569;BME280;16501;51.462;14.346;2023-01-29T09:24:45;101144.72;;;-2.08;97.03
29569;BME280;16501;51.462;14.346;2023-01-29T09:27:11;101169.88;;;-2.06;97.28
29569;BME280;16501;51.462;14.346;2023-01-29T09:29:37;101162.81;;;-2.27;97.65
29569;BME280;16501;51.462;14.346;2023-01-29T09:32:03;101163.84;;;-2.15;97.33
29569;BME280;16501;51.462;14.346;2023-01-29T09:34:30;101155.09;;;-2.21;97.45
29569;BME280;16501;51.462;14.346;2023-01-29T09:36:56;101162.38;;;-2.09;97.77
29569;BME280;16501;51.462;14.346;2023-01-29T09:39:21;101158.53;;;-2.04;97.93
29569;BME280;16501;51.462;14.346;2023-01-29T09:46:55;101138.03;;;-2.11;98.39
29569;BME280;16501;51.462;14.346;2023-01-29T09:49:28;101137.50;;;-2.16;98.71
29569;BME280;16501;51.462;14.346;2023-01-29T09:52:00;101153.09;;;-2.01;98.70
29569;BME280;16501;51.462;14.346;2023-01-29T09:54:32;101127.81;;;-2.10;99.03
29569;BME280;16501;51.462;14.346;2023-01-29T09:57:00;101147.19;;;-2.03;99.29
29569;BME280;16501;51.462;14.346;2023-01-29T09:59:26;101136.63;;;-2.01;99.06
29569;BME280;16501;51.462;14.346;2023-01-29T10:02:09;101130.88;;;-1.92;98.53
29569;BME280;16501;51.462;14.346;2023-01-29T10:05:11;101138.03;;;-1.87;99.22
29569;BME280;16501;51.462;14.346;2023-01-29T10:07:46;101147.78;;;-1.90;99.03
29569;BME280;16501;51.462;14.346;2023-01-29T10:10:38;101156.09;;;-1.86;98.89
29569;BME280;16501;51.462;14.346;2023-01-29T10:13:20;101102.53;;;-2.19;99.23
29569;BME280;16501;51.462;14.346;2023-01-29T10:16:12;101157.22;;;-1.91;99.17
29569;BME280;16501;51.462;14.346;2023-01-29T10:21:55;101142.28;;;-1.90;99.01
29569;BME280;16501;51.462;14.346;2023-01-29T10:24:50;101147.19;;;-1.80;99.48
29569;BME280;16501;51.462;14.346;2023-01-29T10:27:17;101110.78;;;-1.96;99.04
29569;BME280;16501;51.462;14.346;2023-01-29T10:29:46;101108.41;;;-1.98;98.97
29569;BME280;16501;51.462;14.346;2023-01-29T10:32:15;101115.09;;;-1.95;99.29
29569;BME280;16501;51.462;14.346;2023-01-29T10:34:47;101117.25;;;-1.85;99.54
29569;BME280;16501;51.462;14.346;2023-01-29T10:37:19;101093.88;;;-1.98;100.00
29569;BME280;16501;51.462;14.346;2023-01-29T10:39:48;101115.63;;;-1.90;100.00
29569;BME280;16501;51.462;14.346;2023-01-29T10:42:28;101093.31;;;-1.84;100.00
29569;BME280;16501;51.462;14.346;2023-01-29T10:45:23;101088.97;;;-1.85;100.00
29569;BME280;16501;51.462;14.346;2023-01-29T10:48:14;101088.97;;;-1.85;100.00
29569;BME280;16501;51.462;14.346;2023-01-29T10:51:08;101035.97;;;-2.09;100.00
29569;BME280;16501;51.462;14.346;2023-01-29T10:53:52;101062.84;;;-1.76;100.00
29569;BME280;16501;51.462;14.346;2023-01-29T10:56:50;101075.28;;;-1.82;100.00
29569;BME280;16501;51.462;14.346;2023-01-29T11:02:24;101033.72;;;-2.03;100.00
29569;BME280;16501;51.462;14.346;2023-01-29T11:04:49;101043.22;;;-1.97;100.00
29569;BME280;16501;51.462;14.346;2023-01-29T11:07:18;101050.97;;;-1.80;100.00
29569;BME280;16501;51.462;14.346;2023-01-29T11:09:56;101056.56;;;-1.73;100.00
29569;BME280;16501;51.462;14.346;2023-01-29T11:12:30;101045.16;;;-1.75;100.00
29569;BME280;16501;51.462;14.346;2023-01-29T11:15:05;101010.34;;;-1.90;100.00
29569;BME280;16501;51.462;14.346;2023-01-29T11:17:36;100978.34;;;-2.05;100.00
29569;BME280;16501;51.462;14.346;2023-01-29T11:20:05;101038.91;;;-1.72;100.00
29569;BME280;16501;51.462;14.346;2023-01-29T11:22:33;101040.38;;;-1.78;100.00
29569;BME280;16501;51.462;14.346;2023-01-29T11:25:16;101030.56;;;-1.79;100.00
29569;BME280;16501;51.462;14.346;2023-01-29T11:27:48;101031.81;;;-1.73;100.00
29569;BME280;16501;51.462;14.346;2023-01-29T11:30:16;101043.69;;;-1.68;100.00
29569;BME280;16501;51.462;14.346;2023-01-29T11:32:43;101019.56;;;-1.79;100.00
29569;BME280;16501;51.462;14.346;2023-01-29T11:37:40;101005.00;;;-1.83;100.00
29569;BME280;16501;51.462;14.346;2023-01-29T11:42:43;101003.91;;;-1.75;100.00
29569;BME280;16501;51.462;14.346;2023-01-29T11:47:52;101002.19;;;-1.60;100.00
29569;BME280;16501;51.462;14.346;2023-01-29T11:50:35;100994.28;;;-1.61;100.00
29569;BME280;16501;51.462;14.346;2023-01-29T11:53:02;101004.78;;;-1.40;100.00
29569;BME280;16501;51.462;14.346;2023-01-29T11:55:31;101003.19;;;-1.41;100.00
29569;BME280;16501;51.462;14.346;2023-01-29T11:58:10;100955.69;;;-1.68;100.00
29569;BME280;16501;51.462;14.346;2023-01-29T12:00:39;100974.41;;;-1.51;100.00
29569;BME280;16501;51.462;14.346;2023-01-29T12:03:15;100983.19;;;-1.38;100.00
29569;BME280;16501;51.462;14.346;2023-01-29T12:06:16;100991.50;;;-1.35;100.00
29569;BME280;16501;51.462;14.346;2023-01-29T12:08:42;100920.13;;;-1.84;100.00
29569;BME280;16501;51.462;14.346;2023-01-29T12:11:13;100982.31;;;-1.46;100.00
29569;BME280;16501;51.462;14.346;2023-01-29T12:13:40;100985.16;;;-1.39;100.00
29569;BME280;16501;51.462;14.346;2023-01-29T12:18:47;100946.47;;;-1.53;100.00
29569;BME280;16501;51.462;14.346;2023-01-29T12:21:26;100927.03;;;-1.67;100.00
29569;BME280;16501;51.462;14.346;2023-01-29T12:24:00;100943.34;;;-1.52;100.00
29569;BME280;16501;51.462;14.346;2023-01-29T12:26:47;100948.03;;;-1.52;100.00
29569;BME280;16501;51.462;14.346;2023-01-29T12:34:32;100938.59;;;-1.55;100.00
29569;BME280;16501;51.462;14.346;2023-01-29T12:37:08;100965.16;;;-1.36;100.00
29569;BME280;16501;51.462;14.346;2023-01-29T12:39:36;100932.72;;;-1.53;100.00
29569;BME280;16501;51.462;14.346;2023-01-29T12:42:05;100949.41;;;-1.39;100.00
29569;BME280;16501;51.462;14.346;2023-01-29T12:44:37;100953.41;;;-1.33;100.00
29569;BME280;16501;51.462;14.346;2023-01-29T12:47:08;100958.06;;;-1.37;100.00
29569;BME280;16501;51.462;14.346;2023-01-29T12:49:37;100925.72;;;-1.47;100.00
29569;BME280;16501;51.462;14.346;2023-01-29T12:52:10;100957.00;;;-1.28;100.00
29569;BME280;16501;51.462;14.346;2023-01-29T12:54:50;100935.69;;;-1.35;100.00
29569;BME280;16501;51.462;14.346;2023-01-29T12:57:24;100929.41;;;-1.36;100.00
29569;BME280;16501;51.462;14.346;2023-01-29T13:00:27;100909.94;;;-1.50;100.00
29569;BME280;16501;51.462;14.346;2023-01-29T13:02:55;100942.00;;;-1.31;100.00
29569;BME280;16501;51.462;14.346;2023-01-29T13:05:35;100927.03;;;-1.37;100.00
29569;BME280;16501;51.462;14.346;2023-01-29T13:08:25;100904.03;;;-1.52;100.00
29569;BME280;16501;51.462;14.346;2023-01-29T13:10:54;100931.09;;;-1.24;100.00
29569;BME280;16501;51.462;14.346;2023-01-29T13:13:32;100938.19;;;-1.23;100.00
29569;BME280;16501;51.462;14.346;2023-01-29T13:16:00;100934.53;;;-1.34;100.00
29569;BME280;16501;51.462;14.346;2023-01-29T13:18:47;100935.84;;;-1.21;100.00
29569;BME280;16501;51.462;14.346;2023-01-29T13:21:23;100942.91;;;-1.23;100.00
29569;BME280;16501;51.462;14.346;2023-01-29T13:23:55;100920.13;;;-1.20;100.00
29569;BME280;16501;51.462;14.346;2023-01-29T13:26:22;100919.75;;;-1.19;100.00
29569;BME280;16501;51.462;14.346;2023-01-29T13:28:50;100911.88;;;-1.20;100.00
29569;BME280;16501;51.462;14.346;2023-01-29T13:31:35;100911.03;;;-1.24;100.00
29569;BME280;16501;51.462;14.346;2023-01-29T13:34:28;100888.50;;;-1.37;100.00
29569;BME280;16501;51.462;14.346;2023-01-29T13:37:18;100908.38;;;-1.17;100.00
29569;BME280;16501;51.462;14.346;2023-01-29T13:39:47;100866.38;;;-1.48;100.00
29569;BME280;16501;51.462;14.346;2023-01-29T13:42:16;100915.91;;;-1.10;100.00
29569;BME280;16501;51.462;14.346;2023-01-29T13:44:51;100883.53;;;-1.24;100.00
29569;BME280;16501;51.462;14.346;2023-01-29T13:47:30;100873.34;;;-1.20;100.00
29569;BME280;16501;51.462;14.346;2023-01-29T13:50:05;100885.59;;;-1.14;100.00
29569;BME280;16501;51.462;14.346;2023-01-29T13:52:39;100898.72;;;-1.00;100.00
29569;BME280;16501;51.462;14.346;2023-01-29T14:05:42;100877.91;;;-0.98;100.00
29569;BME280;16501;51.462;14.346;2023-01-29T14:10:35;100847.34;;;-1.26;100.00
29569;BME280;16501;51.462;14.346;2023-01-29T14:15:35;100879.84;;;-1.02;100.00
29569;BME280;16501;51.462;14.346;2023-01-29T14:20:49;100855.78;;;-1.08;100.00
29569;BME280;16501;51.462;14.346;2023-01-29T14:23:27;100871.22;;;-0.97;100.00
29569;BME280;16501;51.462;14.346;2023-01-29T14:25:54;100878.66;;;-1.01;100.00
29569;BME280;16501;51.462;14.346;2023-01-29T14:28:23;100870.41;;;-1.01;100.00
29569;BME280;16501;51.462;14.346;2023-01-29T14:30:51;100881.03;;;-1.03;100.00
29569;BME280;16501;51.462;14.346;2023-01-29T14:33:37;100843.88;;;-1.20;100.00
29569;BME280;16501;51.462;14.346;2023-01-29T14:36:12;100882.25;;;-0.97;100.00